Accueil
METAR-TAF:

METAR-TAF

Aéroports :

Aéroport de Charleroi-Bruxelles-Sud

Charleroi, Belgique

latitude: 50-28N, longitude: 004-27E, altitude: 187 m

Observation

Le bulletin a été fait il y a 38 minutes, à 00:20 UTC
Vent 2 kt de direction variable
Température 4°C
Humidité 87%
Pression 1032 hPa
Visibilité: 8000 m

METAR: EBCI 270020Z VRB02KT 8000 NSC 04/02 Q1032 NOSIG

Heure: 01:58 (00:58 UTC)

Prévision

Le bulletin a été fait il y a 1 heure et 48 minutes, à 23:10 UTC
Prévision valable du 27 à 00 UTC au 28 à 06 UTC
Vent 3 kt de ouest
Visibilité 10 km ou plus
Nuages épars à une hauteur de 4000 ft
Probabilité 30% :
Temporairement
du 27 à 03 UTC au 27 à 07 UTC
Visibilité: 1400 m
Nuages fragmentés à une hauteur de 300 ft
brume

TAF: EBCI 262310Z 2700/2806 26003KT 9999 SCT040 PROB30 TEMPO 2703/2707 1400 BR BKN003

Observations et prévisions météorologiques de plus de 4000 aéroports (messages METAR et TAF).

Les stations disponibles sont représentées par des disques jaunes et rouges sur la carte.

Passer la souris dessus pour voir le nom de la station.

Cliquer dessus pour voir les observations et prévisions météorologiques.

Pour changer de carte: cliquez sur les boutons verts avec une croix noire pour zoomer, sur le bouton vert avec un tiret pour effectuer un zoom arrière, ou sur les flèches vertes pour les cartes adjacentes.


METAR-TAF: